Detalii statie SOMALEX GHIMPATI [0000198E]

Monitorizarea temperaturii și a înghetului

Date Temperatura solului [C]HC Air temperature [C]HC Relative humidity [%]Punctul de roua [C]
medieminmaxmedieminmaxmediemediemin
2018-10-10 18:00:00 15.2 15.2 15.2 13.32 13.26 13.39 100 13.2 13.2
2018-10-10 18:10:00 15.2 15.2 15.2 13.04 12.93 13.16 100 13 12.9
2018-10-10 18:20:00 15.1 15.1 15.2 12.74 12.68 12.81 100 12.7 12.6
2018-10-10 18:30:00 15 14.9 15.1 12.46 12.41 12.51 100 12.4 12.4
2018-10-10 18:40:00 14.9 14.9 15 12.23 12.15 12.31 100 12.2 12.1
2018-10-10 18:50:00 14.9 14.9 14.9 12.04 12.02 12.07 100 12 12
2018-10-10 19:00:00 14.8 14.8 14.8 11.94 11.94 11.94 100 11.9 11.9
2018-10-10 19:10:00 14.8 14.8 14.8 11.92 11.88 11.97 100 11.8 11.8
2018-10-10 19:20:00 14.8 14.8 14.9 11.75 11.73 11.78 100 11.7 11.7
2018-10-10 19:30:00 14.6 14.6 14.7 11.76 11.75 11.77 100 11.7 11.7
2018-10-10 19:40:00 14.6 14.6 14.7 11.73 11.7 11.77 100 11.7 11.7
2018-10-10 19:50:00 14.6 14.6 14.7 11.61 11.61 11.62 100 11.6 11.6
2018-10-10 20:00:00 14.5 14.5 14.6 11.62 11.61 11.63 100 11.6 11.6
2018-10-10 20:10:00 14.5 14.4 14.6 11.46 11.38 11.55 100 11.4 11.3
2018-10-10 20:20:00 14.4 14.4 14.4 11.2 11.16 11.25 100 11.1 11.1
2018-10-10 20:30:00 14.5 14.5 14.5 11.12 11.11 11.13 100 11.1 11.1
2018-10-10 20:40:00 14.3 14.3 14.4 11.13 11.13 11.13 100 11.1 11.1
2018-10-10 20:50:00 14.4 14.4 14.5 11.12 11.1 11.15 100 11.1 11.1
2018-10-10 21:00:00 14.3 14.3 14.3 10.93 10.86 11.01 100 10.9 10.8
2018-10-10 21:10:00 14.3 14.3 14.4 10.81 10.8 10.82 100 10.8 10.8
2018-10-10 21:20:00 14.1 14.1 14.2 10.85 10.83 10.87 100 10.8 10.8
2018-10-10 21:30:00 14.2 14.2 14.2 10.81 10.77 10.85 100 10.7 10.7
2018-10-10 21:40:00 14.1 14.1 14.2 10.71 10.7 10.72 100 10.7 10.7
2018-10-10 21:50:00 14.1 14.1 14.2 10.56 10.55 10.57 100 10.5 10.5
2018-10-10 22:00:00 14 13.9 14.1 10.52 10.48 10.57 100 10.4 10.4
2018-10-10 22:10:00 14.1 14.1 14.1 10.44 10.44 10.45 100 10.4 10.4
2018-10-10 22:20:00 13.9 13.8 14.1 10.48 10.47 10.49 100 10.4 10.4
2018-10-10 22:30:00 13.9 13.9 13.9 10.49 10.46 10.53 100 10.4 10.4
2018-10-10 22:40:00 14 14 14 10.44 10.41 10.47 100 10.4 10.4
2018-10-10 22:50:00 13.9 13.9 14 10.43 10.41 10.45 100 10.4 10.4
2018-10-10 23:00:00 13.9 13.8 14 10.26 10.21 10.31 100 10.2 10.2
2018-10-10 23:10:00 13.8 13.8 13.8 10.18 10.17 10.19 100 10.1 10.1
2018-10-10 23:20:00 13.7 13.7 13.8 10.19 10.18 10.2 100 10.1 10.1
2018-10-10 23:30:00 13.7 13.7 13.8 10.2 10.19 10.22 100 10.1 10.1
2018-10-10 23:40:00 13.7 13.7 13.7 10.2 10.2 10.21 100 10.2 10.2
2018-10-10 23:50:00 13.7 13.7 13.7 10.25 10.25 10.25 100 10.2 10.2
2018-10-11 00:00:00 13.7 13.7 13.7 10.28 10.25 10.32 100 10.2 10.2
2018-10-11 00:10:00 13.6 13.6 13.7 10.37 10.3 10.45 100 10.3 10.3
2018-10-11 00:20:00 13.6 13.6 13.6 10.39 10.36 10.42 100 10.3 10.3
2018-10-11 00:30:00 13.5 13.5 13.6 10.28 10.28 10.28 100 10.2 10.2
2018-10-11 00:40:00 13.5 13.4 13.6 10.24 10.22 10.27 100 10.2 10.2
2018-10-11 00:50:00 13.6 13.6 13.6 10.36 10.31 10.42 100 10.3 10.3
2018-10-11 01:00:00 13.4 13.4 13.4 10.57 10.55 10.59 100 10.5 10.5
2018-10-11 01:10:00 13.4 13.4 13.5 10.84 10.8 10.89 100 10.8 10.8
2018-10-11 01:20:00 13.4 13.4 13.5 11.08 11.02 11.14 100 11 11
2018-10-11 01:30:00 13.5 13.5 13.5 11.32 11.3 11.34 100 11.3 11.3
2018-10-11 01:40:00 13.4 13.4 13.5 11.31 11.31 11.32 100 11.3 11.3
2018-10-11 01:50:00 13.4 13.3 13.5 11.29 11.29 11.3 100 11.2 11.2